Portada
METAR-TAF:

METAR-TAF

Aeroports :

Iakutsk, Rússia

latitud: 62-01N, longitud: 129-43E, altitud: 103 m

Observació

L'informe es va fer fa 39 minuts, a les 10:30 UTC
Vent calma
Temperatura -39°C
Humitat 59%
Pressió 1015 hPa
Visibilitat: 5000 m
boirina

METAR: UEEE 201030Z 00000MPS 5000 BR NSC M39/M44 Q1015 R23L/490150 NOSIG RMK QFE753

Hora: 20:09 (11:09 UTC)

Pronòstic

L'informe es va fer fa 3 hores i 9 minuts, a les 08:00 UTC
Pronòstic vàlid del 20 a les 09 UTC al 21 a les 15 UTC
Vent 2 kt amb direcció variable
Visibilitat 10 km o més
sense núvols per sota de 1500 mi sense presència de cumulonimbus.
Temporalment
l' 20 a les 09 UTC al 20 a les 15 UTC
Visibilitat: 1000 m
boirina
Temporalment
l' 20 a les 15 UTC al 21 a les 04 UTC
Visibilitat: 0300 m
a una alçada de 300 ft
boira

TAF: UEEE 200800Z 2009/2115 VRB01MPS CAVOK TXM34/2009Z TNM43/2023Z TEMPO 2009/2015 1000 BR NSC TEMPO 2015/2104 0300 FG VV003

Observacions i pronòstics meteorològics de més de 4000 aeroports (METAR i TAF).

Les estacions disponibles són els punts grocs i vermells al mapa.

Posi el ratolí al punt desitjat per veure el nom de l'estació.

Feu clic per veure les observacions i els pronòstics meteorològics.

Per canviar el mapa: feu clic els botons verds amb una creu de color negre per apropar; al botó verd amb un guió per allunyar la imatge; o en les fletxes verdes per a mapes adjacents.


METAR-TAF: